RAM1418 GMML-GCLP
Flight info
| Callsign | RAM1418 |
|---|---|
| Flight time | 0h 39m |
| Altitude | 16000 |
| Route | LAY COSTI COST2C |
| Aircraft | AT76/M-SDE2E3FGHIRWXY/LB1 |
Departure
| Time | 2026-04-26 10:14 |
|---|---|
| Airport | Laayoune Hassan I International Airport (GMML) |
Arrival
| Time | 2026-04-26 10:54 |
|---|---|
| Airport | Gran Canaria Airport (GCLP) |
| Time | Latitude | Longitude | Altitude | Speed | Heading |
|---|---|---|---|---|---|
| 2026-04-26 10:03 | 27.15198 | -13.21784 | 213 ft | 0 kts | 32° |
| 2026-04-26 10:07 | 27.15209 | -13.21778 | 214 ft | 5 kts | 7° |
| 2026-04-26 10:08 | 27.15211 | -13.21814 | 214 ft | 10 kts | 198° |
| 2026-04-26 10:08 | 27.15116 | -13.21835 | 214 ft | 13 kts | 160° |
| 2026-04-26 10:08 | 27.15054 | -13.21793 | 214 ft | 12 kts | 219° |
| 2026-04-26 10:08 | 27.14967 | -13.21855 | 214 ft | 17 kts | 212° |
| 2026-04-26 10:09 | 27.14854 | -13.21933 | 214 ft | 21 kts | 218° |
| 2026-04-26 10:09 | 27.14776 | -13.22072 | 214 ft | 22 kts | 259° |
| 2026-04-26 10:09 | 27.14788 | -13.22239 | 214 ft | 22 kts | 287° |
| 2026-04-26 10:09 | 27.14832 | -13.22406 | 214 ft | 22 kts | 285° |
| 2026-04-26 10:10 | 27.14877 | -13.22573 | 214 ft | 22 kts | 287° |
| 2026-04-26 10:10 | 27.14908 | -13.22726 | 214 ft | 15 kts | 250° |
| 2026-04-26 10:10 | 27.14825 | -13.22765 | 214 ft | 17 kts | 196° |
| 2026-04-26 10:10 | 27.14688 | -13.22810 | 214 ft | 24 kts | 196° |
| 2026-04-26 10:11 | 27.14513 | -13.22868 | 214 ft | 28 kts | 196° |
| 2026-04-26 10:11 | 27.14313 | -13.22934 | 214 ft | 31 kts | 197° |
| 2026-04-26 10:11 | 27.14095 | -13.23005 | 214 ft | 34 kts | 196° |
| 2026-04-26 10:11 | 27.13866 | -13.23079 | 214 ft | 35 kts | 198° |
| 2026-04-26 10:12 | 27.13629 | -13.23160 | 214 ft | 34 kts | 195° |
| 2026-04-26 10:12 | 27.13426 | -13.23227 | 214 ft | 28 kts | 196° |
| 2026-04-26 10:12 | 27.13247 | -13.23285 | 214 ft | 26 kts | 196° |
| 2026-04-26 10:12 | 27.13086 | -13.23334 | 214 ft | 13 kts | 197° |
| 2026-04-26 10:13 | 27.13049 | -13.23396 | 214 ft | 11 kts | 257° |
| 2026-04-26 10:13 | 27.13030 | -13.23490 | 214 ft | 13 kts | 256° |
| 2026-04-26 10:13 | 27.13047 | -13.23544 | 213 ft | 4 kts | 10° |
| 2026-04-26 10:13 | 27.13048 | -13.23543 | 213 ft | 0 kts | 12° |
| 2026-04-26 10:14 | 27.13085 | -13.23534 | 214 ft | 15 kts | 17° |
| 2026-04-26 10:14 | 27.13349 | -13.23446 | 214 ft | 78 kts | 15° |
| 2026-04-26 10:14 | 27.14066 | -13.23207 | 333 ft | 122 kts | 17° |
| 2026-04-26 10:14 | 27.14869 | -13.22941 | 941 ft | 128 kts | 14° |
| 2026-04-26 10:15 | 27.15831 | -13.22645 | 1303 ft | 152 kts | 12° |
| 2026-04-26 10:15 | 27.16900 | -13.22297 | 1856 ft | 165 kts | 13° |
| 2026-04-26 10:15 | 27.17617 | -13.22067 | 2366 ft | 159 kts | 13° |
| 2026-04-26 10:15 | 27.18959 | -13.22448 | 3107 ft | 155 kts | 326° |
| 2026-04-26 10:16 | 27.19473 | -13.23539 | 3601 ft | 172 kts | 294° |
| 2026-04-26 10:16 | 27.19893 | -13.24854 | 4089 ft | 173 kts | 295° |
| 2026-04-26 10:16 | 27.20323 | -13.26095 | 4644 ft | 172 kts | 296° |
| 2026-04-26 10:16 | 27.20619 | -13.26924 | 4917 ft | 175 kts | 296° |
| 2026-04-26 10:17 | 27.21081 | -13.28213 | 5338 ft | 179 kts | 296° |
| 2026-04-26 10:17 | 27.21547 | -13.29505 | 5802 ft | 178 kts | 296° |
| 2026-04-26 10:17 | 27.22011 | -13.30795 | 6229 ft | 179 kts | 295° |
| 2026-04-26 10:17 | 27.22469 | -13.32099 | 6658 ft | 179 kts | 295° |
| 2026-04-26 10:18 | 27.22927 | -13.33399 | 7083 ft | 179 kts | 295° |
| 2026-04-26 10:18 | 27.23391 | -13.34708 | 7490 ft | 180 kts | 294° |
| 2026-04-26 10:18 | 27.23850 | -13.36016 | 7909 ft | 180 kts | 293° |
| 2026-04-26 10:18 | 27.24318 | -13.37331 | 8294 ft | 182 kts | 295° |
| 2026-04-26 10:19 | 27.24787 | -13.38656 | 8717 ft | 181 kts | 294° |
| 2026-04-26 10:19 | 27.25251 | -13.39971 | 9124 ft | 182 kts | 293° |
| 2026-04-26 10:19 | 27.25721 | -13.41307 | 9458 ft | 186 kts | 293° |
| 2026-04-26 10:19 | 27.26207 | -13.42673 | 9783 ft | 191 kts | 292° |
| 2026-04-26 10:20 | 27.26700 | -13.44046 | 10146 ft | 192 kts | 293° |
| 2026-04-26 10:20 | 27.27199 | -13.45459 | 10542 ft | 191 kts | 292° |
| 2026-04-26 10:20 | 27.27684 | -13.46851 | 10921 ft | 192 kts | 292° |
| 2026-04-26 10:20 | 27.28170 | -13.48247 | 11273 ft | 193 kts | 292° |
| 2026-04-26 10:21 | 27.28656 | -13.49636 | 11629 ft | 194 kts | 292° |
| 2026-04-26 10:21 | 27.29159 | -13.51067 | 11985 ft | 194 kts | 292° |
| 2026-04-26 10:21 | 27.29649 | -13.52458 | 12316 ft | 196 kts | 292° |
| 2026-04-26 10:21 | 27.30160 | -13.53900 | 12660 ft | 197 kts | 292° |
| 2026-04-26 10:22 | 27.30667 | -13.55327 | 12994 ft | 197 kts | 292° |
| 2026-04-26 10:22 | 27.31184 | -13.56775 | 13323 ft | 198 kts | 292° |
| 2026-04-26 10:22 | 27.31700 | -13.58214 | 13647 ft | 199 kts | 292° |
| 2026-04-26 10:22 | 27.32217 | -13.59648 | 13951 ft | 201 kts | 292° |
| 2026-04-26 10:23 | 27.32750 | -13.61124 | 14271 ft | 202 kts | 292° |
| 2026-04-26 10:23 | 27.33282 | -13.62587 | 14585 ft | 202 kts | 292° |
| 2026-04-26 10:23 | 27.33806 | -13.64059 | 14888 ft | 203 kts | 291° |
| 2026-04-26 10:23 | 27.34317 | -13.65520 | 15185 ft | 204 kts | 291° |
| 2026-04-26 10:24 | 27.34844 | -13.66999 | 15485 ft | 204 kts | 291° |
| 2026-04-26 10:24 | 27.35372 | -13.68466 | 15782 ft | 205 kts | 291° |
| 2026-04-26 10:24 | 27.35914 | -13.69986 | 16013 ft | 209 kts | 290° |
| 2026-04-26 10:24 | 27.36393 | -13.71577 | 16117 ft | 218 kts | 287° |
| 2026-04-26 10:25 | 27.36845 | -13.73251 | 16145 ft | 228 kts | 286° |
| 2026-04-26 10:25 | 27.37305 | -13.74997 | 16150 ft | 238 kts | 286° |
| 2026-04-26 10:25 | 27.37781 | -13.76821 | 16150 ft | 246 kts | 286° |
| 2026-04-26 10:25 | 27.38267 | -13.78690 | 16149 ft | 252 kts | 286° |
| 2026-04-26 10:26 | 27.38761 | -13.80595 | 16149 ft | 256 kts | 286° |
| 2026-04-26 10:26 | 27.39263 | -13.82532 | 16148 ft | 259 kts | 286° |
| 2026-04-26 10:26 | 27.39771 | -13.84490 | 16147 ft | 261 kts | 286° |
| 2026-04-26 10:26 | 27.40283 | -13.86457 | 16147 ft | 263 kts | 286° |
| 2026-04-26 10:27 | 27.40804 | -13.88432 | 16147 ft | 265 kts | 287° |
| 2026-04-26 10:27 | 27.41345 | -13.90423 | 16146 ft | 266 kts | 287° |
| 2026-04-26 10:27 | 27.41883 | -13.92420 | 16146 ft | 267 kts | 286° |
| 2026-04-26 10:27 | 27.42410 | -13.94427 | 16146 ft | 268 kts | 286° |
| 2026-04-26 10:28 | 27.42926 | -13.96419 | 16146 ft | 268 kts | 286° |
| 2026-04-26 10:28 | 27.43454 | -13.98461 | 16146 ft | 269 kts | 286° |
| 2026-04-26 10:28 | 27.43973 | -14.00475 | 16146 ft | 269 kts | 286° |
| 2026-04-26 10:28 | 27.44500 | -14.02500 | 16146 ft | 269 kts | 286° |
| 2026-04-26 10:29 | 27.45043 | -14.04518 | 16161 ft | 269 kts | 287° |
| 2026-04-26 10:29 | 27.45562 | -14.06428 | 16167 ft | 269 kts | 287° |
| 2026-04-26 10:29 | 27.46100 | -14.08472 | 16169 ft | 269 kts | 286° |
| 2026-04-26 10:29 | 27.46634 | -14.10532 | 16170 ft | 269 kts | 286° |
| 2026-04-26 10:30 | 27.47156 | -14.12558 | 16170 ft | 269 kts | 286° |
| 2026-04-26 10:30 | 27.47671 | -14.14560 | 16170 ft | 269 kts | 286° |
| 2026-04-26 10:30 | 27.48192 | -14.16585 | 16170 ft | 269 kts | 286° |
| 2026-04-26 10:30 | 27.48722 | -14.18638 | 16170 ft | 269 kts | 286° |
| 2026-04-26 10:31 | 27.49256 | -14.20636 | 16117 ft | 272 kts | 287° |
| 2026-04-26 10:31 | 27.49810 | -14.22687 | 15997 ft | 275 kts | 287° |
| 2026-04-26 10:31 | 27.50356 | -14.24764 | 15874 ft | 278 kts | 286° |
| 2026-04-26 10:31 | 27.50897 | -14.26868 | 15750 ft | 280 kts | 286° |
| 2026-04-26 10:32 | 27.51432 | -14.28963 | 15616 ft | 280 kts | 286° |
| 2026-04-26 10:32 | 27.51987 | -14.31086 | 15465 ft | 281 kts | 287° |
| 2026-04-26 10:32 | 27.52543 | -14.33198 | 15315 ft | 281 kts | 287° |
| 2026-04-26 10:32 | 27.53098 | -14.35297 | 15165 ft | 278 kts | 287° |
| 2026-04-26 10:33 | 27.53646 | -14.37378 | 15013 ft | 275 kts | 287° |
| 2026-04-26 10:33 | 27.54190 | -14.39451 | 14861 ft | 273 kts | 287° |
| 2026-04-26 10:33 | 27.54709 | -14.41501 | 14713 ft | 271 kts | 286° |
| 2026-04-26 10:33 | 27.55219 | -14.43525 | 14562 ft | 268 kts | 286° |
| 2026-04-26 10:34 | 27.55735 | -14.45509 | 14410 ft | 267 kts | 287° |
| 2026-04-26 10:34 | 27.56269 | -14.47556 | 14258 ft | 268 kts | 287° |
| 2026-04-26 10:34 | 27.56793 | -14.49576 | 14108 ft | 269 kts | 287° |
| 2026-04-26 10:34 | 27.57314 | -14.51592 | 13959 ft | 269 kts | 287° |
| 2026-04-26 10:35 | 27.57836 | -14.53623 | 13808 ft | 269 kts | 287° |
| 2026-04-26 10:35 | 27.58355 | -14.55643 | 13658 ft | 268 kts | 287° |
| 2026-04-26 10:35 | 27.58872 | -14.57661 | 13508 ft | 268 kts | 287° |
| 2026-04-26 10:35 | 27.59382 | -14.59658 | 13360 ft | 268 kts | 287° |
| 2026-04-26 10:36 | 27.59892 | -14.61661 | 13210 ft | 266 kts | 287° |
| 2026-04-26 10:36 | 27.60408 | -14.63690 | 13072 ft | 264 kts | 287° |
| 2026-04-26 10:36 | 27.60904 | -14.65646 | 12948 ft | 262 kts | 287° |
| 2026-04-26 10:36 | 27.61411 | -14.67618 | 12822 ft | 261 kts | 287° |
| 2026-04-26 10:37 | 27.61925 | -14.69559 | 12698 ft | 260 kts | 287° |
| 2026-04-26 10:37 | 27.62433 | -14.71525 | 12571 ft | 259 kts | 287° |
| 2026-04-26 10:37 | 27.62924 | -14.73463 | 12447 ft | 258 kts | 287° |
| 2026-04-26 10:37 | 27.63415 | -14.75405 | 12322 ft | 258 kts | 287° |
| 2026-04-26 10:38 | 27.63924 | -14.77358 | 12195 ft | 258 kts | 288° |
| 2026-04-26 10:38 | 27.64433 | -14.79293 | 12070 ft | 258 kts | 288° |
| 2026-04-26 10:38 | 27.64942 | -14.81230 | 11945 ft | 258 kts | 288° |
| 2026-04-26 10:38 | 27.65436 | -14.83176 | 11821 ft | 259 kts | 287° |
| 2026-04-26 10:39 | 27.65921 | -14.85133 | 11696 ft | 259 kts | 287° |
| 2026-04-26 10:39 | 27.66416 | -14.87092 | 11580 ft | 259 kts | 287° |
| 2026-04-26 10:39 | 27.66919 | -14.89034 | 11481 ft | 258 kts | 287° |
| 2026-04-26 10:39 | 27.67422 | -14.90969 | 11381 ft | 257 kts | 288° |
| 2026-04-26 10:40 | 27.67927 | -14.92909 | 11280 ft | 257 kts | 288° |
| 2026-04-26 10:40 | 27.68405 | -14.94771 | 11184 ft | 257 kts | 287° |
| 2026-04-26 10:40 | 27.68893 | -14.96743 | 11082 ft | 256 kts | 287° |
| 2026-04-26 10:40 | 27.69379 | -14.98669 | 10990 ft | 256 kts | 287° |
| 2026-04-26 10:41 | 27.69644 | -15.00653 | 10878 ft | 257 kts | 270° |
| 2026-04-26 10:41 | 27.69325 | -15.02613 | 10771 ft | 259 kts | 259° |
| 2026-04-26 10:41 | 27.68842 | -15.04602 | 10602 ft | 262 kts | 256° |
| 2026-04-26 10:41 | 27.68314 | -15.06567 | 10429 ft | 264 kts | 255° |
| 2026-04-26 10:42 | 27.67763 | -15.08556 | 10252 ft | 265 kts | 255° |
| 2026-04-26 10:42 | 27.67202 | -15.10535 | 10077 ft | 265 kts | 254° |
| 2026-04-26 10:42 | 27.66622 | -15.12509 | 9876 ft | 266 kts | 253° |
| 2026-04-26 10:42 | 27.66028 | -15.14500 | 9675 ft | 266 kts | 253° |
| 2026-04-26 10:43 | 27.65444 | -15.16439 | 9454 ft | 261 kts | 253° |
| 2026-04-26 10:43 | 27.64867 | -15.18335 | 9198 ft | 250 kts | 253° |
| 2026-04-26 10:43 | 27.64305 | -15.20163 | 8919 ft | 242 kts | 253° |
| 2026-04-26 10:43 | 27.63754 | -15.21934 | 8596 ft | 238 kts | 253° |
| 2026-04-26 10:44 | 27.63205 | -15.23685 | 8219 ft | 237 kts | 253° |
| 2026-04-26 10:44 | 27.62650 | -15.25443 | 7839 ft | 237 kts | 253° |
| 2026-04-26 10:44 | 27.62109 | -15.27197 | 7473 ft | 235 kts | 253° |
| 2026-04-26 10:44 | 27.61588 | -15.28929 | 7149 ft | 232 kts | 253° |
| 2026-04-26 10:45 | 27.61073 | -15.30657 | 6820 ft | 230 kts | 253° |
| 2026-04-26 10:45 | 27.60874 | -15.32418 | 6457 ft | 226 kts | 276° |
| 2026-04-26 10:45 | 27.61475 | -15.33991 | 6184 ft | 219 kts | 306° |
| 2026-04-26 10:45 | 27.62600 | -15.35123 | 5966 ft | 213 kts | 323° |
| 2026-04-26 10:46 | 27.63803 | -15.36039 | 5722 ft | 211 kts | 327° |
| 2026-04-26 10:46 | 27.65040 | -15.36918 | 5473 ft | 210 kts | 328° |
| 2026-04-26 10:46 | 27.66289 | -15.37791 | 5221 ft | 209 kts | 328° |
| 2026-04-26 10:46 | 27.67523 | -15.38650 | 4991 ft | 207 kts | 328° |
| 2026-04-26 10:47 | 27.68727 | -15.39489 | 4767 ft | 203 kts | 328° |
| 2026-04-26 10:47 | 27.69927 | -15.40327 | 4539 ft | 199 kts | 328° |
| 2026-04-26 10:47 | 27.71094 | -15.41161 | 4311 ft | 197 kts | 328° |
| 2026-04-26 10:47 | 27.72215 | -15.41984 | 4093 ft | 194 kts | 327° |
| 2026-04-26 10:48 | 27.73352 | -15.42821 | 3879 ft | 190 kts | 328° |
| 2026-04-26 10:48 | 27.74433 | -15.43614 | 3704 ft | 186 kts | 328° |
| 2026-04-26 10:48 | 27.75507 | -15.44396 | 3530 ft | 183 kts | 326° |
| 2026-04-26 10:48 | 27.76579 | -15.45158 | 3396 ft | 180 kts | 327° |
| 2026-04-26 10:49 | 27.77681 | -15.45782 | 3281 ft | 175 kts | 344° |
| 2026-04-26 10:49 | 27.78815 | -15.45583 | 3306 ft | 163 kts | 23° |
| 2026-04-26 10:49 | 27.79651 | -15.44819 | 3335 ft | 147 kts | 38° |
| 2026-04-26 10:49 | 27.80460 | -15.44245 | 3355 ft | 131 kts | 26° |
| 2026-04-26 10:50 | 27.81295 | -15.43864 | 3323 ft | 128 kts | 19° |
| 2026-04-26 10:50 | 27.81852 | -15.43625 | 3314 ft | 126 kts | 19° |
| 2026-04-26 10:50 | 27.82944 | -15.43148 | 3215 ft | 130 kts | 19° |
| 2026-04-26 10:50 | 27.83805 | -15.42775 | 3018 ft | 137 kts | 19° |
| 2026-04-26 10:51 | 27.84699 | -15.42392 | 2836 ft | 138 kts | 19° |
| 2026-04-26 10:51 | 27.86503 | -15.41600 | 2360 ft | 138 kts | 20° |
| 2026-04-26 10:51 | 27.87356 | -15.41229 | 2044 ft | 125 kts | 20° |
| 2026-04-26 10:52 | 27.88133 | -15.40887 | 1742 ft | 120 kts | 20° |
| 2026-04-26 10:52 | 27.88915 | -15.40542 | 1411 ft | 122 kts | 20° |
| 2026-04-26 10:52 | 27.89711 | -15.40191 | 1083 ft | 123 kts | 20° |
| 2026-04-26 10:52 | 27.90512 | -15.39841 | 758 ft | 123 kts | 20° |
| 2026-04-26 10:53 | 27.91280 | -15.39508 | 431 ft | 113 kts | 21° |
| 2026-04-26 10:53 | 27.91954 | -15.39210 | 168 ft | 96 kts | 21° |
| 2026-04-26 10:53 | 27.92490 | -15.38975 | 85 ft | 67 kts | 21° |
| 2026-04-26 10:54 | 27.93024 | -15.38742 | 85 ft | 15 kts | 0° |
| 2026-04-26 10:54 | 27.93107 | -15.38741 | 85 ft | 10 kts | 1° |
| 2026-04-26 10:54 | 27.93172 | -15.38741 | 85 ft | 9 kts | 358° |
| 2026-04-26 10:54 | 27.93228 | -15.38744 | 85 ft | 8 kts | 358° |
| 2026-04-26 10:55 | 27.93282 | -15.38746 | 85 ft | 8 kts | 358° |
| 2026-04-26 10:55 | 27.93339 | -15.38748 | 85 ft | 9 kts | 356° |
| 2026-04-26 10:55 | 27.93418 | -15.38748 | 85 ft | 13 kts | 20° |
| 2026-04-26 10:55 | 27.93478 | -15.38722 | 85 ft | 14 kts | 22° |
| 2026-04-26 10:56 | 27.93598 | -15.38668 | 85 ft | 14 kts | 20° |
| 2026-04-26 10:56 | 27.93658 | -15.38643 | 85 ft | 14 kts | 21° |
| 2026-04-26 10:56 | 27.93737 | -15.38607 | 85 ft | 11 kts | 22° |
| 2026-04-26 10:56 | 27.93790 | -15.38623 | 85 ft | 7 kts | 287° |
| 2026-04-26 10:57 | 27.93796 | -15.38646 | 85 ft | 1 kts | 289° |
| 2026-04-26 10:57 | 27.93797 | -15.38647 | 85 ft | 0 kts | 290° |